Lenox, MA

11:41 AM EDT on September 01, 2014 (GMT -0400)
Morse State | Change Station
CLOSE
Current Station
Airport
Location: Bennington,
Elevation: 827 ft
Nearby Weather Stations

Elev 827 ft 42.89 °N, 73.25 °W | Updated 17 minutes ago

Mostly Cloudy
Mostly Cloudy
76 °F
Feels Like 76 °F
N
0
Wind Variable Wind from North

Today
High -- | Low -- °F
--% Chance of Precip.
Yesterday
High -- | Low -- °F
Precip. -- in
6:18 AM 7:27 PM
Waxing Crescent, 41% visible
Pressure 30.00 in
Visibility 10.0 miles
Clouds Few 2200 ft
Mostly Cloudy 3000 ft
Mostly Cloudy 3600 ft
Dew Point 67 °F
Humidity 74%
Rainfall 0.00 in
Snow Depth Not available.
UV 4 out of 12
Pollen 6.90 out of 12
PM2.5 Moderate
Flu Activity Not available.
SPECI KDDH 011524Z AUTO 00000KT 10SM FEW022 BKN030 BKN036 24/19 A3000 RMK AO2 T02440194

More Conditions Fewer Conditions

Pressure 30.00 in
Visibility 10.0 miles
Clouds Few 2200 ft
Mostly Cloudy 3000 ft
Mostly Cloudy 3600 ft
Dew Point 67 °F
Humidity 74%
Rainfall 0.00 in
Snow Depth Not available.
UV 4 out of 12
Pollen 6.90 out of 12
PM2.5 Moderate
Flu Activity Not available.
SPECI KDDH 011524Z AUTO 00000KT 10SM FEW022 BKN030 BKN036 24/19 A3000 RMK AO2 T02440194

More Conditions Fewer Conditions

10-Day Weather Forecast

Almanac

Astronomy

Sep. 01, 2014 Rise Set
Actual Time 6:18 AM EDT 7:27 PM EDT
Civil Twilight 5:49 AM EDT 7:55 PM EDT
Nautical Twilight 5:14 AM EDT 8:30 PM EDT
Astronomical Twilight 4:38 AM EDT 9:06 PM EDT
Moon 1:09 PM EDT 11:17 PM EDT
Length of Visible Light 14h 06m
Length of Day
13h 08m
Tomorrow will be 2m 44s shorter.
Waxing Crescent, 41% of the Moon is Illuminated
Today
Waxing Crescent
Sep 2
First Quarter
Sep 8
Full
Sep 15
Last Quarter
Sep 24
New

Today's Extremes

State Highs State Lows

Community

WunderPhotos

Upload Photos

1,749,276 photos uploaded!

Nearby

Air Quality

  Air Quality AQ Index Pollutant
Yesterday Moderate
PM2.5
Current Moderate
PM2.5
Monday Moderate
PM2.5
Monday Good
OZONE
Tuesday Moderate
PM2.5
Tuesday Good
OZONE

Snow Depth

Station Depth Elevation
No new snow has been reported.

Earthquake Activity

City Distance Mag. Time & Date
No recent earthquake activity has been reported nearby.
Minimum magnitude displayed is 2.5.

Coastal Water Temperatures

Place Temperature
No Stations Reporting

Nearby Weather Stations